Time;durP1;ratioP1;P1;durP2;ratioP2;P2;SDS_P1;SDS_P2;PMS_P1;PMS_P2;Temp;Humidity;BMP_temperature;BMP_pressure;BME280_temperature;BME280_humidity;BME280_pressure;Samples;Min_cycle;Max_cycle;Signal;HPM_P1;HPM_P2
2022/03/26 00:00:36;;;;;;;39.03;19.20;;;4.70;99.90;;;;;;4937864;29;20047;-84
2022/03/26 00:03:03;;;;;;;36.47;18.97;;;4.60;99.90;;;;;;4920973;29;20156;-83
2022/03/26 00:05:28;;;;;;;37.50;18.10;;;4.50;99.90;;;;;;4919909;29;20510;-84
2022/03/26 00:07:54;;;;;;;38.40;18.27;;;4.50;99.90;;;;;;4920918;29;20056;-83
2022/03/26 00:10:20;;;;;;;40.57;18.63;;;4.50;99.90;;;;;;4938199;29;20075;-84
2022/03/26 00:12:45;;;;;;;42.33;19.20;;;4.40;99.90;;;;;;4920097;29;20039;-84
2022/03/26 00:15:12;;;;;;;37.93;18.47;;;4.40;99.90;;;;;;4920686;29;20044;-83
2022/03/26 00:17:38;;;;;;;37.37;19.80;;;4.40;99.90;;;;;;4938209;29;20122;-84
2022/03/26 00:20:06;;;;;;;42.70;20.00;;;4.40;99.90;;;;;;4937551;29;20043;-83
2022/03/26 00:22:32;;;;;;;41.10;19.47;;;4.40;99.90;;;;;;4920710;29;20054;-83
2022/03/26 00:24:57;;;;;;;40.30;18.17;;;4.40;99.90;;;;;;4938005;29;20048;-83
2022/03/26 00:27:24;;;;;;;37.47;18.43;;;4.30;99.90;;;;;;4919976;29;20052;-83
2022/03/26 00:29:50;;;;;;;41.33;19.57;;;4.30;99.90;;;;;;4937692;29;20428;-83
2022/03/26 00:32:15;;;;;;;41.57;20.63;;;4.30;99.90;;;;;;4937412;29;20054;-83
2022/03/26 00:34:41;;;;;;;42.40;19.57;;;4.30;99.90;;;;;;4919999;29;20567;-83
2022/03/26 00:37:07;;;;;;;39.53;18.23;;;4.30;99.90;;;;;;4937462;29;20104;-83
2022/03/26 00:39:32;;;;;;;37.93;19.17;;;4.20;99.90;;;;;;4920264;29;20075;-83
2022/03/26 00:41:58;;;;;;;40.37;18.73;;;4.20;99.90;;;;;;4919670;29;20070;-83
2022/03/26 00:44:24;;;;;;;40.33;19.13;;;4.20;99.90;;;;;;4920215;29;20499;-83
2022/03/26 00:46:50;;;;;;;44.10;18.87;;;4.30;99.90;;;;;;4920453;29;20043;-83
2022/03/26 00:49:17;;;;;;;39.37;18.43;;;4.10;99.90;;;;;;4936523;29;20048;-83
2022/03/26 00:51:43;;;;;;;39.70;19.63;;;4.10;99.90;;;;;;4937249;29;20051;-83
2022/03/26 00:54:09;;;;;;;38.63;18.87;;;4.10;99.90;;;;;;4937287;29;20051;-83
2022/03/26 00:56:36;;;;;;;44.57;20.50;;;4.10;99.90;;;;;;4919334;29;20043;-83
2022/03/26 00:59:02;;;;;;;42.27;18.87;;;4.00;99.90;;;;;;4920416;29;20106;-83
2022/03/26 01:01:28;;;;;;;39.53;18.70;;;4.00;99.90;;;;;;4936931;29;20044;-83
2022/03/26 01:03:54;;;;;;;40.70;18.27;;;4.00;99.90;;;;;;4918872;29;20071;-83
2022/03/26 01:06:19;;;;;;;38.40;19.57;;;4.00;99.90;;;;;;4936999;29;20135;-83
2022/03/26 01:08:45;;;;;;;41.03;19.87;;;4.00;99.90;;;;;;4919230;29;20083;-83
2022/03/26 01:11:11;;;;;;;43.30;19.43;;;4.00;99.90;;;;;;4919795;29;20046;-83
2022/03/26 01:13:38;;;;;;;45.73;21.03;;;3.90;99.90;;;;;;4937158;29;20052;-83
2022/03/26 01:16:05;;;;;;;47.13;22.87;;;4.00;99.90;;;;;;4935828;29;20147;-83
2022/03/26 01:18:31;;;;;;;45.30;22.33;;;3.90;99.90;;;;;;4919617;29;20468;-83
2022/03/26 01:20:57;;;;;;;43.27;21.10;;;3.90;99.90;;;;;;4937010;29;20118;-83
2022/03/26 01:23:22;;;;;;;47.83;21.80;;;3.90;99.90;;;;;;4918541;29;20542;-83
2022/03/26 01:25:48;;;;;;;47.50;21.13;;;3.90;99.90;;;;;;4920198;29;20502;-83
2022/03/26 01:28:14;;;;;;;49.87;21.53;;;3.90;99.90;;;;;;4936620;29;20071;-83
2022/03/26 01:30:41;;;;;;;45.17;21.70;;;3.90;99.90;;;;;;4935886;29;20536;-83
2022/03/26 01:33:06;;;;;;;44.23;20.57;;;3.80;99.90;;;;;;4919339;29;20712;-83
2022/03/26 01:35:32;;;;;;;46.80;20.80;;;3.80;99.90;;;;;;4919234;29;20047;-84
2022/03/26 01:38:01;;;;;;;48.50;21.47;;;3.70;99.90;;;;;;4918776;29;20054;-83
2022/03/26 01:40:27;;;;;;;47.50;23.00;;;3.70;99.90;;;;;;4936041;29;20048;-83
2022/03/26 01:42:53;;;;;;;47.97;21.67;;;3.70;99.90;;;;;;4918997;29;20115;-84
2022/03/26 01:45:19;;;;;;;48.60;23.43;;;3.60;99.90;;;;;;4935478;29;20047;-84
2022/03/26 01:47:44;;;;;;;48.70;21.60;;;3.60;99.90;;;;;;4919313;29;20500;-83
2022/03/26 01:50:10;;;;;;;49.90;22.57;;;3.60;99.90;;;;;;4936547;29;20384;-83
2022/03/26 01:52:35;;;;;;;51.00;23.07;;;3.60;99.90;;;;;;4935593;29;20044;-84
2022/03/26 01:55:01;;;;;;;49.93;22.93;;;3.50;99.90;;;;;;4936484;29;20043;-83
2022/03/26 01:57:28;;;;;;;50.80;22.93;;;3.50;99.90;;;;;;4935827;29;20044;-83
2022/03/26 01:59:55;;;;;;;49.70;22.80;;;3.50;99.90;;;;;;4935468;29;20131;-83
2022/03/26 02:02:21;;;;;;;49.70;22.97;;;3.50;99.90;;;;;;4935650;29;20492;-83
2022/03/26 02:04:47;;;;;;;49.60;23.07;;;3.40;99.90;;;;;;4919053;29;20126;-84
2022/03/26 02:07:13;;;;;;;50.93;23.23;;;3.40;99.90;;;;;;4917763;29;20122;-84
2022/03/26 02:09:38;;;;;;;50.20;22.53;;;3.40;99.90;;;;;;4919457;29;20051;-84
2022/03/26 02:12:25;;;;;;;53.47;22.87;;;3.40;99.90;;;;;;4935280;29;20044;-83
2022/03/26 02:14:51;;;;;;;45.10;21.63;;;3.40;99.90;;;;;;4918662;29;20075;-83
2022/03/26 02:17:17;;;;;;;52.97;23.03;;;3.40;99.90;;;;;;4917740;29;20462;-83
2022/03/26 02:19:51;;;;;;;50.30;22.43;;;3.30;99.90;;;;;;4918365;29;20135;-84
2022/03/26 02:22:17;;;;;;;51.88;22.33;;;3.30;99.90;;;;;;4934946;29;20051;-83
2022/03/26 02:24:42;;;;;;;46.60;21.63;;;3.30;99.90;;;;;;4935979;29;20058;-84
2022/03/26 02:27:08;;;;;;;52.57;23.57;;;3.30;99.90;;;;;;4917605;29;20088;-83
2022/03/26 02:29:34;;;;;;;49.73;22.90;;;3.30;99.90;;;;;;4918066;29;20138;-83
2022/03/26 02:32:00;;;;;;;51.60;23.80;;;3.30;99.90;;;;;;4935692;29;20139;-84
2022/03/26 02:34:26;;;;;;;55.30;24.00;;;3.30;99.90;;;;;;4934812;29;20058;-83
2022/03/26 02:36:55;;;;;;;56.53;25.80;;;3.20;99.90;;;;;;4935443;29;20099;-83
2022/03/26 02:39:21;;;;;;;54.10;24.20;;;3.20;99.90;;;;;;4935332;29;20078;-83
2022/03/26 02:41:47;;;;;;;53.53;23.50;;;3.20;99.90;;;;;;4934585;29;20051;-83
2022/03/26 02:44:12;;;;;;;58.03;25.43;;;3.20;99.90;;;;;;4918054;29;20052;-83
2022/03/26 02:46:38;;;;;;;56.23;26.10;;;3.10;99.90;;;;;;4935759;29;20043;-83
2022/03/26 02:49:03;;;;;;;58.10;25.57;;;3.30;99.90;;;;;;4917531;29;20055;-83
2022/03/26 02:51:29;;;;;;;55.50;25.57;;;3.10;99.90;;;;;;4935300;29;20046;-83
2022/03/26 02:53:54;;;;;;;60.73;27.07;;;3.10;99.90;;;;;;4918445;29;20051;-83
2022/03/26 02:56:21;;;;;;;61.43;28.60;;;3.00;99.90;;;;;;4934000;29;20082;-83
2022/03/26 02:58:47;;;;;;;62.70;27.47;;;3.00;99.90;;;;;;4918802;29;20502;-83
2022/03/26 03:01:13;;;;;;;62.97;26.87;;;3.00;99.90;;;;;;4934975;29;20499;-83
2022/03/26 03:03:39;;;;;;;60.97;28.13;;;3.00;99.90;;;;;;4917469;29;20059;-83
2022/03/26 03:06:04;;;;;;;71.17;30.63;;;3.00;99.90;;;;;;4917633;29;20130;-83
2022/03/26 03:08:30;;;;;;;70.70;29.53;;;3.00;99.90;;;;;;4917027;29;20175;-83
2022/03/26 03:10:56;;;;;;;71.40;29.50;;;2.90;99.90;;;;;;4935132;29;20506;-83
2022/03/26 03:13:22;;;;;;;70.73;29.77;;;2.90;99.90;;;;;;4934692;29;20052;-83
2022/03/26 03:15:49;;;;;;;70.33;31.67;;;2.90;99.90;;;;;;4917953;29;20052;-83
2022/03/26 03:18:15;;;;;;;71.87;30.50;;;2.80;99.90;;;;;;4917805;29;20506;-83
2022/03/26 03:20:41;;;;;;;81.37;32.43;;;2.80;99.90;;;;;;4918046;29;20082;-83
2022/03/26 03:23:07;;;;;;;76.80;32.97;;;2.80;99.90;;;;;;4934275;29;20083;-83
2022/03/26 03:25:55;;;;;;;76.63;33.17;;;2.80;99.90;;;;;;4917956;29;20043;-83
2022/03/26 03:28:25;;;;;;;77.47;32.87;;;2.70;99.90;;;;;;4920104;29;20066;-83
2022/03/26 03:31:03;;;;;;;80.87;32.70;;;3.10;99.90;;;;;;4938458;29;20048;-83
2022/03/26 03:33:40;;;;;;;78.07;32.58;;;2.70;99.90;;;;;;4921854;29;20106;-83
2022/03/26 03:36:25;;;;;;;85.37;33.63;;;3.00;99.90;;;;;;4922792;29;20526;-83
2022/03/26 03:38:57;;;;;;;81.87;32.57;;;2.60;99.90;;;;;;4938477;29;20059;-83
2022/03/26 03:41:23;;;;;;;82.97;34.57;;;2.70;99.90;;;;;;4921548;29;20444;-83
2022/03/26 03:43:48;;;;;;;84.30;34.73;;;2.70;99.90;;;;;;4937830;29;20052;-83
2022/03/26 03:46:14;;;;;;;88.23;34.10;;;2.60;99.90;;;;;;4921151;29;20048;-83
2022/03/26 03:48:40;;;;;;;75.60;32.27;;;2.60;99.90;;;;;;4938835;29;20039;-83
2022/03/26 03:51:05;;;;;;;89.23;32.93;;;2.60;99.90;;;;;;4920755;29;20036;-83
2022/03/26 03:53:31;;;;;;;77.67;32.77;;;2.60;99.90;;;;;;4920878;29;20079;-83
2022/03/26 03:55:56;;;;;;;78.47;33.97;;;2.60;99.90;;;;;;4921340;29;20047;-83
2022/03/26 03:58:22;;;;;;;83.43;34.27;;;2.60;99.90;;;;;;4937487;29;20047;-83
2022/03/26 04:00:47;;;;;;;89.63;35.50;;;2.50;99.90;;;;;;4938576;29;20175;-83
2022/03/26 04:03:15;;;;;;;91.23;35.83;;;2.50;99.90;;;;;;4920715;29;20074;-83
2022/03/26 04:05:41;;;;;;;89.30;35.93;;;2.50;99.90;;;;;;4937614;29;20090;-83
2022/03/26 04:08:06;;;;;;;86.07;34.07;;;2.50;99.90;;;;;;4938246;29;20083;-83
2022/03/26 04:10:32;;;;;;;85.13;34.50;;;2.40;99.90;;;;;;4920962;29;20106;-83
2022/03/26 04:12:58;;;;;;;81.97;34.67;;;2.40;99.90;;;;;;4920390;29;20600;-83
2022/03/26 04:15:24;;;;;;;86.67;35.40;;;2.40;99.90;;;;;;4920677;29;20499;-83
2022/03/26 04:17:52;;;;;;;86.73;35.60;;;2.40;99.90;;;;;;4938199;29;20047;-83
2022/03/26 04:20:18;;;;;;;83.67;34.43;;;2.40;99.90;;;;;;4937235;29;20484;-83
2022/03/26 04:22:43;;;;;;;92.30;37.20;;;2.30;99.90;;;;;;4920860;29;20043;-83
2022/03/26 04:25:10;;;;;;;95.07;36.80;;;2.30;99.90;;;;;;4921023;29;20039;-83
2022/03/26 04:27:36;;;;;;;88.27;36.80;;;2.30;99.90;;;;;;4919904;29;20048;-83
2022/03/26 04:30:02;;;;;;;90.63;35.50;;;2.30;99.90;;;;;;4938004;29;20047;-83
2022/03/26 04:32:28;;;;;;;85.67;35.27;;;2.30;99.90;;;;;;4937667;29;20059;-84
2022/03/26 04:34:54;;;;;;;92.87;35.73;;;2.30;99.90;;;;;;4920103;29;20051;-83
2022/03/26 04:37:20;;;;;;;91.80;36.43;;;2.30;99.90;;;;;;4919888;29;20145;-83
2022/03/26 04:39:45;;;;;;;87.97;34.60;;;2.30;99.90;;;;;;4918849;29;20055;-84
2022/03/26 04:42:11;;;;;;;88.80;36.07;;;2.20;99.90;;;;;;4919998;29;20411;-85
2022/03/26 04:44:36;;;;;;;89.07;33.63;;;2.20;99.90;;;;;;4920356;29;20063;-84
2022/03/26 04:47:02;;;;;;;83.43;35.03;;;2.20;99.90;;;;;;4937032;29;20048;-84
2022/03/26 04:49:28;;;;;;;82.70;33.20;;;2.20;99.90;;;;;;4920344;29;20050;-84
2022/03/26 04:51:54;;;;;;;77.67;31.30;;;2.20;99.90;;;;;;4920682;29;20075;-84
2022/03/26 04:54:20;;;;;;;84.43;33.30;;;2.20;99.90;;;;;;4936652;29;20476;-83
2022/03/26 04:56:45;;;;;;;75.90;32.53;;;2.20;99.90;;;;;;4920148;29;20052;-83
2022/03/26 04:59:11;;;;;;;85.47;31.67;;;2.20;99.90;;;;;;4920215;29;20074;-84
2022/03/26 05:01:37;;;;;;;82.30;33.10;;;2.20;99.90;;;;;;4919493;29;20515;-84
2022/03/26 05:04:03;;;;;;;78.37;32.03;;;2.20;99.90;;;;;;4937094;29;20062;-84
2022/03/26 05:06:29;;;;;;;76.47;32.00;;;2.10;99.90;;;;;;4919206;29;20050;-83
2022/03/26 05:08:54;;;;;;;77.13;32.17;;;2.10;99.90;;;;;;4919019;29;20061;-84
2022/03/26 05:11:20;;;;;;;82.13;32.03;;;2.10;99.90;;;;;;4919642;29;20082;-83
2022/03/26 05:13:46;;;;;;;78.03;31.37;;;2.10;99.90;;;;;;4920566;29;20058;-84
2022/03/26 05:16:11;;;;;;;80.33;32.93;;;2.10;99.90;;;;;;4936114;29;20443;-83
2022/03/26 05:18:37;;;;;;;82.00;32.93;;;2.00;99.90;;;;;;4919786;29;20103;-84
2022/03/26 05:21:03;;;;;;;79.83;34.10;;;2.00;99.90;;;;;;4937104;29;20071;-84
2022/03/26 05:23:29;;;;;;;80.80;33.47;;;2.00;99.90;;;;;;4935810;29;20090;-84
2022/03/26 05:25:54;;;;;;;85.83;34.57;;;2.00;99.90;;;;;;4920190;29;20429;-83
2022/03/26 05:28:20;;;;;;;88.87;33.47;;;2.10;99.90;;;;;;4936575;29;20047;-84
2022/03/26 05:30:50;;;;;;;88.90;33.43;;;2.00;99.90;;;;;;4935855;29;20075;-84
2022/03/26 05:33:15;;;;;;;85.17;33.00;;;2.20;99.90;;;;;;4919269;29;20506;-84
2022/03/26 05:35:41;;;;;;;85.27;35.07;;;2.00;99.90;;;;;;4919547;29;20043;-84
2022/03/26 05:38:07;;;;;;;92.60;34.93;;;2.00;99.90;;;;;;4935717;29;20048;-85
2022/03/26 05:40:32;;;;;;;88.37;34.17;;;2.10;99.90;;;;;;4936189;29;20048;-85
2022/03/26 05:42:58;;;;;;;83.30;34.17;;;2.10;99.90;;;;;;4936090;29;20059;-85
2022/03/26 05:45:24;;;;;;;87.87;36.00;;;2.10;99.90;;;;;;4935365;29;20056;-85
2022/03/26 05:47:51;;;;;;;85.87;36.50;;;2.10;99.90;;;;;;4919271;29;20043;-85
2022/03/26 05:50:17;;;;;;;86.87;35.80;;;2.20;99.90;;;;;;4918044;29;20056;-87
2022/03/26 05:52:43;;;;;;;97.77;37.70;;;2.20;99.90;;;;;;4919309;29;20044;-86
2022/03/26 05:55:12;;;;;;;96.57;36.80;;;2.20;99.90;;;;;;4936314;29;20112;-86
2022/03/26 05:57:37;;;;;;;92.23;35.90;;;2.20;99.90;;;;;;4935213;29;20052;-86
2022/03/26 06:00:04;;;;;;;100.37;37.43;;;2.40;99.90;;;;;;4919186;29;20080;-86
2022/03/26 06:02:30;;;;;;;92.77;37.40;;;2.30;99.90;;;;;;4935479;29;20440;-86
2022/03/26 06:04:56;;;;;;;88.63;34.87;;;3.20;99.90;;;;;;4918416;29;20062;-85
2022/03/26 06:07:21;;;;;;;94.37;37.37;;;3.30;99.90;;;;;;4935666;29;20040;-85
2022/03/26 06:09:47;;;;;;;93.10;36.17;;;2.40;99.90;;;;;;4936244;29;20491;-86
2022/03/26 06:12:12;;;;;;;94.10;35.83;;;2.50;99.90;;;;;;4934735;29;20532;-85
2022/03/26 06:14:38;;;;;;;93.50;36.70;;;2.60;99.90;;;;;;4935790;29;20055;-85
2022/03/26 06:17:04;;;;;;;100.40;37.50;;;2.70;99.90;;;;;;4918747;29;20098;-86
2022/03/26 06:19:30;;;;;;;86.53;35.43;;;2.70;99.90;;;;;;4918126;29;20079;-86
2022/03/26 06:21:55;;;;;;;89.73;34.57;;;2.70;99.90;;;;;;4935944;29;20444;-85
2022/03/26 06:24:21;;;;;;;84.43;34.80;;;2.80;99.90;;;;;;4935580;29;20047;-84
2022/03/26 06:26:48;;;;;;;85.93;34.13;;;2.80;99.90;;;;;;4934955;29;20056;-83
2022/03/26 06:29:14;;;;;;;92.77;37.27;;;2.90;99.90;;;;;;4935667;29;20048;-84
2022/03/26 06:31:40;;;;;;;91.77;36.67;;;2.90;99.90;;;;;;4935689;29;20400;-84
2022/03/26 06:34:06;;;;;;;86.50;35.40;;;3.10;99.90;;;;;;4918139;29;20052;-84
2022/03/26 06:36:33;;;;;;;92.70;39.03;;;3.20;99.90;;;;;;4918453;29;20040;-83
2022/03/26 06:38:59;;;;;;;91.03;36.70;;;3.20;99.90;;;;;;4918309;29;20043;-84
2022/03/26 06:41:25;;;;;;;96.07;37.73;;;3.30;99.90;;;;;;4934306;29;20047;-84
2022/03/26 06:43:50;;;;;;;88.50;36.83;;;3.40;99.90;;;;;;4935036;29;20055;-84
2022/03/26 06:46:16;;;;;;;92.30;35.27;;;3.50;99.90;;;;;;4918199;29;20056;-84
2022/03/26 06:48:42;;;;;;;89.07;36.77;;;4.00;99.90;;;;;;4935053;29;20148;-84
2022/03/26 06:51:10;;;;;;;89.63;38.03;;;3.70;99.90;;;;;;4935428;29;20067;-84
2022/03/26 06:53:36;;;;;;;95.77;37.30;;;3.80;99.90;;;;;;4934842;29;20432;-84
2022/03/26 06:56:05;;;;;;;97.50;37.77;;;4.00;99.90;;;;;;4935417;29;20075;-84
2022/03/26 06:58:30;;;;;;;95.97;39.07;;;4.10;99.90;;;;;;4917996;29;20163;-84
2022/03/26 07:00:58;;;;;;;102.63;41.37;;;4.30;99.90;;;;;;4934846;29;20452;-84
2022/03/26 07:03:24;;;;;;;95.73;39.97;;;4.40;99.90;;;;;;4937416;29;20384;-85
2022/03/26 07:05:50;;;;;;;97.73;41.73;;;4.70;99.90;;;;;;4939241;29;20103;-86
2022/03/26 07:08:18;;;;;;;96.80;38.47;;;4.90;99.90;;;;;;4921152;29;20083;-86
2022/03/26 07:10:53;;;;;;;101.80;40.83;;;5.00;99.90;;;;;;4922397;29;20048;-88
2022/03/26 07:13:18;;;;;;;87.43;36.80;;;5.00;99.90;;;;;;4922010;29;20043;-88
2022/03/26 07:15:44;;;;;;;91.47;37.83;;;5.90;99.90;;;;;;4921329;29;20399;-87
2022/03/26 07:18:11;;;;;;;89.80;36.37;;;5.60;99.90;;;;;;4922133;29;20055;-87
2022/03/26 07:20:38;;;;;;;82.83;34.30;;;5.90;99.90;;;;;;4939124;29;20119;-88
2022/03/26 07:23:03;;;;;;;82.70;33.43;;;6.20;99.90;;;;;;4921146;29;20047;-89
2022/03/26 07:25:37;;;;;;;80.90;34.20;;;6.60;99.90;;;;;;4923301;29;20514;-93
2022/03/26 07:28:12;;;;;;;;;;;7.10;99.90;;;;;;4941197;29;20044;-90
2022/03/26 07:30:47;;;;;;;;;;;7.10;99.90;;;;;;4921501;29;20298;-90
2022/03/26 07:33:19;;;;;;;85.40;35.10;;;8.00;99.90;;;;;;4937708;29;19922;-88
2022/03/26 07:35:47;;;;;;;75.13;34.50;;;7.20;99.90;;;;;;4937548;29;20051;-87
2022/03/26 07:38:22;;;;;;;75.33;32.43;;;8.50;99.90;;;;;;4938222;29;20186;-87
2022/03/26 07:40:54;;;;;;;70.80;30.17;;;7.70;99.90;;;;;;4920946;29;20050;-87
2022/03/26 07:43:35;;;;;;;69.30;30.67;;;7.80;99.90;;;;;;4920272;29;20138;-89
2022/03/26 07:46:01;;;;;;;68.10;30.20;;;9.20;99.90;;;;;;4938018;29;20044;-89
2022/03/26 07:48:29;;;;;;;69.23;31.13;;;8.10;99.90;;;;;;4939612;29;20128;-92
2022/03/26 07:51:04;;;;;;;62.33;30.23;;;8.40;99.90;;;;;;4925467;29;20054;-95
2022/03/26 07:56:37;;;;;;;58.23;28.60;;;9.20;99.90;;;;;;4937358;29;20051;-94
2022/03/26 07:59:11;;;;;;;56.50;27.50;;;9.00;99.90;;;;;;4933851;29;20114;-93
2022/03/26 08:02:04;;;;;;;65.45;28.67;;;9.10;99.90;;;;;;4913365;29;20067;-91
2022/03/26 08:04:39;;;;;;;59.13;28.83;;;9.40;99.90;;;;;;4942483;29;20219;-91
2022/03/26 08:07:14;;;;;;;59.85;29.52;;;9.70;99.90;;;;;;4940880;29;20051;-91
2022/03/26 08:09:40;;;;;;;58.53;27.92;;;9.60;99.90;;;;;;4955685;29;20040;-90
2022/03/26 08:12:07;;;;;;;56.15;28.42;;;10.60;99.90;;;;;;4922370;29;20106;-90
2022/03/26 08:14:34;;;;;;;59.97;28.55;;;10.00;99.90;;;;;;4937873;29;20094;-90
2022/03/26 08:17:09;;;;;;;56.58;28.27;;;10.50;99.90;;;;;;4937795;29;20040;-90
2022/03/26 08:19:38;;;;;;;62.33;28.38;;;10.00;99.90;;;;;;4936879;29;20449;-91
2022/03/26 08:22:07;;;;;;;55.10;28.17;;;10.10;99.90;;;;;;4920773;29;20043;-91
2022/03/26 08:24:39;;;;;;;58.13;27.10;;;10.10;99.90;;;;;;4920856;29;20052;-91
2022/03/26 08:27:14;;;;;;;56.70;27.10;;;10.60;99.90;;;;;;4937185;29;20043;-91
2022/03/26 08:29:50;;;;;;;57.83;27.73;;;11.00;99.90;;;;;;4937927;29;20055;-89
2022/03/26 08:32:21;;;;;;;59.50;29.20;;;10.90;99.90;;;;;;4936894;29;20043;-89
2022/03/26 08:34:59;;;;;;;59.35;29.42;;;10.80;99.90;;;;;;4937143;29;20076;-88
2022/03/26 08:37:31;;;;;;;58.72;28.90;;;11.60;99.90;;;;;;4919848;29;20044;-88
2022/03/26 08:39:56;;;;;;;61.63;29.85;;;11.40;99.90;;;;;;4924604;29;20086;-89
2022/03/26 08:42:22;;;;;;;63.85;30.83;;;11.80;99.90;;;;;;4937627;29;20048;-88
2022/03/26 08:44:48;;;;;;;57.10;28.67;;;11.30;99.90;;;;;;4937091;29;20071;-88
2022/03/26 08:47:19;;;;;;;55.72;28.10;;;11.00;99.90;;;;;;4918743;29;20032;-89
2022/03/26 08:49:57;;;;;;;54.85;27.10;;;11.60;99.90;;;;;;4919678;29;20039;-88
2022/03/26 08:52:23;;;;;;;51.63;27.30;;;12.00;99.90;;;;;;4920034;29;20134;-89
2022/03/26 08:54:55;;;;;;;52.80;26.83;;;12.70;99.90;;;;;;4919180;29;20472;-89
2022/03/26 08:57:20;;;;;;;52.25;26.33;;;12.90;99.90;;;;;;4919387;29;20455;-88
2022/03/26 08:59:46;;;;;;;49.58;25.70;;;12.70;99.90;;;;;;4937284;29;20043;-90
2022/03/26 09:02:12;;;;;;;45.58;23.25;;;12.00;99.90;;;;;;4936385;29;20132;-90
2022/03/26 09:04:48;;;;;;;46.85;21.83;;;12.10;99.90;;;;;;4920370;29;20051;-89
2022/03/26 09:07:14;;;;;;;42.72;20.17;;;12.20;99.90;;;;;;4935834;29;20043;-88
2022/03/26 09:09:42;;;;;;;44.42;21.90;;;12.80;99.90;;;;;;4920317;29;20539;-88
2022/03/26 09:12:11;;;;;;;45.88;22.27;;;12.60;99.90;;;;;;4919763;29;20130;-89
2022/03/26 09:14:36;;;;;;;40.22;19.52;;;13.90;99.90;;;;;;4919249;29;20043;-89
2022/03/26 09:20:18;;;;;;;36.42;17.02;;;13.20;99.90;;;;;;4914855;29;20518;-88
2022/03/26 09:22:43;;;;;;;33.78;16.33;;;13.80;99.90;;;;;;4899639;29;20045;-88
2022/03/26 09:25:09;;;;;;;29.42;15.07;;;14.40;99.90;;;;;;4916458;29;20075;-87
2022/03/26 09:27:38;;;;;;;38.45;18.08;;;13.50;99.90;;;;;;4916877;29;20040;-87
2022/03/26 09:30:15;;;;;;;30.58;16.52;;;13.90;99.90;;;;;;4899492;29;20040;-88
2022/03/26 09:32:46;;;;;;;34.17;16.95;;;13.50;99.90;;;;;;4917671;29;20462;-87
2022/03/26 09:35:18;;;;;;;34.85;17.02;;;13.60;99.90;;;;;;4897552;29;20063;-88
2022/03/26 09:37:50;;;;;;;29.15;16.00;;;14.00;99.90;;;;;;4900157;29;20059;-87
2022/03/26 09:40:19;;;;;;;31.10;16.10;;;13.70;99.90;;;;;;4882132;29;20080;-87
2022/03/26 09:42:52;;;;;;;37.38;18.80;;;13.80;99.90;;;;;;4898640;29;20049;-88
2022/03/26 09:45:23;;;;;;;36.08;17.67;;;14.20;99.90;;;;;;4909195;29;20078;-88
2022/03/26 09:47:55;;;;;;;32.22;17.85;;;15.40;99.90;;;;;;4914491;29;20037;-88
2022/03/26 09:50:21;;;;;;;31.67;16.10;;;15.50;99.90;;;;;;4915634;29;20056;-88
2022/03/26 09:52:48;;;;;;;30.38;15.80;;;14.80;99.90;;;;;;4899631;29;20059;-87
2022/03/26 09:55:17;;;;;;;30.77;15.55;;;14.80;99.90;;;;;;4916898;29;20047;-88
2022/03/26 09:57:48;;;;;;;30.25;16.52;;;15.10;99.90;;;;;;4899194;29;20377;-88
2022/03/26 10:00:17;;;;;;;25.88;15.52;;;14.20;99.90;;;;;;4916778;29;20040;-88
2022/03/26 10:02:48;;;;;;;29.05;15.93;;;14.40;99.90;;;;;;4916826;29;20096;-92
2022/03/26 10:05:18;;;;;;;29.08;16.52;;;14.10;99.90;;;;;;4951044;23;20508;-88
2022/03/26 10:07:50;;;;;;;29.65;16.48;;;14.80;99.90;;;;;;4916872;29;20507;-89
2022/03/26 10:10:25;;;;;;;25.73;15.45;;;15.40;99.90;;;;;;4899943;29;20556;-86
2022/03/26 10:12:57;;;;;;;26.73;15.77;;;15.50;99.90;;;;;;4916588;29;20044;-91
2022/03/26 10:15:22;;;;;;;25.05;14.25;;;16.00;99.90;;;;;;4916959;29;20216;-89
2022/03/26 10:18:09;;;;;;;24.30;13.45;;;15.20;99.90;;;;;;4899417;29;20050;-89
2022/03/26 10:20:34;;;;;;;23.30;12.35;;;15.20;99.90;;;;;;4899512;29;20044;-88
2022/03/26 10:23:00;;;;;;;21.92;13.00;;;16.20;99.90;;;;;;4916470;29;20040;-88
2022/03/26 10:25:27;;;;;;;19.67;11.07;;;15.70;99.90;;;;;;4898594;29;20518;-88
2022/03/26 10:28:01;;;;;;;18.17;9.13;;;15.60;99.90;;;;;;4899668;29;20075;-88
2022/03/26 10:33:35;;;;;;;16.08;9.27;;;17.00;99.90;;;;;;4898703;29;20373;-89
2022/03/26 10:36:06;;;;;;;14.50;8.57;;;16.10;99.90;;;;;;4899614;29;20055;-88
2022/03/26 10:38:44;;;;;;;20.30;11.77;;;15.30;99.90;;;;;;4898113;29;20447;-89
2022/03/26 10:41:13;;;;;;;20.58;12.25;;;16.50;99.90;;;;;;4898842;29;20044;-88
2022/03/26 10:44:22;;;;;;;19.65;11.40;;;17.30;99.90;;;;;;4898733;29;20047;-88
2022/03/26 10:47:04;;;;;;;18.27;10.82;;;16.40;99.90;;;;;;4901194;29;20055;-90
2022/03/26 10:49:50;;;;;;;18.10;10.88;;;16.60;99.90;;;;;;4903301;29;20052;-90
2022/03/26 10:52:17;;;;;;;18.30;11.52;;;17.20;99.90;;;;;;4916605;29;20051;-89
2022/03/26 10:54:55;;;;;;;18.17;10.98;;;16.80;99.90;;;;;;4899314;29;20059;-90
2022/03/26 10:57:32;;;;;;;19.52;12.48;;;16.80;99.90;;;;;;4899544;29;20051;-89
2022/03/26 11:00:05;;;;;;;22.90;12.75;;;17.30;99.90;;;;;;4915005;29;20063;-89
2022/03/26 11:02:41;;;;;;;18.88;12.30;;;16.90;99.90;;;;;;4916276;29;20044;-90
2022/03/26 11:05:11;;;;;;;19.75;11.80;;;17.90;99.90;;;;;;4917039;29;20491;-90
2022/03/26 11:07:40;;;;;;;18.02;11.55;;;17.60;99.90;;;;;;4915954;29;20052;-89
2022/03/26 11:10:31;;;;;;;17.52;11.60;;;16.20;99.90;;;;;;4914955;29;20092;-90
2022/03/26 11:13:11;;;;;;;17.27;10.50;;;17.00;99.90;;;;;;4899191;29;20078;-90
2022/03/26 11:15:44;;;;;;;16.38;10.88;;;16.30;99.90;;;;;;4952150;23;20320;-90
2022/03/26 11:18:28;;;;;;;;;;;17.10;99.90;;;;;;4916668;29;20077;-91
2022/03/26 11:21:06;;;;;;;16.90;10.30;;;17.10;99.90;;;;;;4898818;29;19934;-90
2022/03/26 11:23:51;;;;;;;20.10;12.18;;;17.10;99.90;;;;;;4916700;29;20143;-90
2022/03/26 11:27:03;;;;;;;19.35;12.00;;;17.30;99.90;;;;;;4898952;29;20059;-90
2022/03/26 11:30:41;;;;;;;19.40;13.13;;;17.30;99.90;;;;;;4898166;29;20131;-89
2022/03/26 11:33:14;;;;;;;19.95;11.32;;;17.40;99.90;;;;;;4824293;29;20053;-90
2022/03/26 11:36:00;;;;;;;16.55;10.48;;;17.60;99.90;;;;;;4823766;29;20068;-90
2022/03/26 11:38:38;;;;;;;18.80;12.77;;;18.20;99.90;;;;;;4829645;29;20108;-95
2022/03/26 11:41:05;;;;;;;21.30;12.93;;;17.80;99.90;;;;;;4842877;29;20449;-88
2022/03/26 11:43:43;;;;;;;18.77;11.63;;;17.80;99.90;;;;;;4859371;29;20147;-91
2022/03/26 11:52:51;;;;;;;19.70;13.23;;;18.20;99.80;;;;;;4861257;29;20049;-90
2022/03/26 11:55:27;;;;;;;19.48;12.25;;;19.00;99.90;;;;;;4861098;29;20081;-90
2022/03/26 11:58:29;;;;;;;19.75;13.05;;;18.10;99.90;;;;;;4860478;29;20121;-90
2022/03/26 12:01:03;;;;;;;19.85;12.52;;;18.20;99.90;;;;;;4861571;29;20060;-90
2022/03/26 12:03:43;;;;;;;18.98;11.80;;;17.80;99.90;;;;;;4902712;29;20139;-94
2022/03/26 12:09:38;;;;;;;16.75;10.70;;;17.80;99.90;;;;;;4901229;29;20049;-95
2022/03/26 12:12:21;;;;;;;16.85;10.60;;;18.40;99.00;;;;;;4896298;29;20096;-89
2022/03/26 12:15:17;;;;;;;15.88;10.68;;;19.00;99.90;;;;;;4908556;29;20056;-93
2022/03/26 12:17:53;;;;;;;19.70;11.23;;;18.50;99.90;;;;;;4919489;29;20107;-91
2022/03/26 12:20:33;;;;;;;16.92;10.73;;;19.40;99.60;;;;;;4931531;23;20350;-91
2022/03/26 12:23:10;;;;;;;14.73;9.73;;;18.70;99.70;;;;;;4941434;29;20112;-91
2022/03/26 12:25:50;;;;;;;15.02;9.30;;;19.30;99.10;;;;;;4937567;29;20134;-90
2022/03/26 12:28:36;;;;;;;16.50;9.52;;;18.80;98.20;;;;;;4941560;23;20047;-93
2022/03/26 12:31:54;;;;;;;16.13;9.52;;;20.20;98.70;;;;;;4900718;29;20063;-90
2022/03/26 12:34:59;;;;;;;13.15;8.60;;;19.10;97.80;;;;;;4899982;29;20052;-91
2022/03/26 12:37:25;;;;;;;14.52;8.93;;;18.80;98.40;;;;;;4900737;29;20105;-89
2022/03/26 12:40:06;;;;;;;14.82;8.68;;;18.80;98.60;;;;;;4913736;23;20138;-91
2022/03/26 12:42:38;;;;;;;13.35;8.23;;;18.70;97.40;;;;;;4993822;23;20074;-91
2022/03/26 12:45:54;;;;;;;13.95;8.57;;;17.40;97.30;;;;;;4937085;29;20487;-91
2022/03/26 12:51:22;;;;;;;12.25;8.10;;;18.60;97.60;;;;;;5006424;23;20078;-91
2022/03/26 12:53:47;;;;;;;14.70;8.40;;;18.40;98.20;;;;;;4920421;29;20054;-88
2022/03/26 12:56:19;;;;;;;15.60;8.65;;;17.70;97.90;;;;;;4920780;29;20138;-91
2022/03/26 12:58:57;;;;;;;14.25;8.20;;;18.20;97.60;;;;;;4920450;29;20047;-91
2022/03/26 13:01:23;;;;;;;15.88;8.25;;;19.00;98.00;;;;;;4935143;29;20503;-92
2022/03/26 13:03:55;;;;;;;13.25;7.85;;;17.40;98.20;;;;;;4919947;29;20088;-91
2022/03/26 13:06:30;;;;;;;13.32;7.72;;;18.50;98.60;;;;;;4919589;29;20042;-91
2022/03/26 13:09:11;;;;;;;11.75;6.85;;;18.70;98.20;;;;;;4920042;29;20055;-91
2022/03/26 13:11:51;;;;;;;10.25;5.65;;;18.50;97.90;;;;;;4936869;29;20048;-89